sensor_id;sensor_type;location;lat;lon;timestamp;pressure;altitude;pressure_sealevel;temperature;humidity
76940;BME280;65885;55.848;35.916;2023-02-28T00:01:40;99892.72;;;-4.62;63.39
76940;BME280;65885;55.848;35.916;2023-02-28T00:04:07;99890.25;;;-4.59;63.13
76940;BME280;65885;55.848;35.916;2023-02-28T00:06:37;99889.50;;;-4.55;63.55
76940;BME280;65885;55.848;35.916;2023-02-28T00:09:05;99886.19;;;-4.51;62.92
76940;BME280;65885;55.848;35.916;2023-02-28T00:11:32;99883.75;;;-4.46;62.92
76940;BME280;65885;55.848;35.916;2023-02-28T00:14:00;99877.88;;;-4.42;62.49
76940;BME280;65885;55.848;35.916;2023-02-28T00:16:28;99883.94;;;-4.38;62.91
76940;BME280;65885;55.848;35.916;2023-02-28T00:18:55;99872.91;;;-4.37;62.36
76940;BME280;65885;55.848;35.916;2023-02-28T00:21:22;99875.50;;;-4.34;62.40
76940;BME280;65885;55.848;35.916;2023-02-28T00:23:52;99866.13;;;-4.35;61.92
76940;BME280;65885;55.848;35.916;2023-02-28T00:26:19;99863.44;;;-4.38;61.96
76940;BME280;65885;55.848;35.916;2023-02-28T00:28:46;99863.41;;;-4.40;61.54
76940;BME280;65885;55.848;35.916;2023-02-28T00:31:14;99865.91;;;-4.43;61.50
76940;BME280;65885;55.848;35.916;2023-02-28T00:33:42;99869.16;;;-4.50;61.18
76940;BME280;65885;55.848;35.916;2023-02-28T00:36:11;99857.72;;;-4.63;61.34
76940;BME280;65885;55.848;35.916;2023-02-28T00:38:40;99865.00;;;-4.78;61.49
76940;BME280;65885;55.848;35.916;2023-02-28T00:41:11;99861.19;;;-4.92;61.61
76940;BME280;65885;55.848;35.916;2023-02-28T00:43:39;99852.28;;;-5.07;61.82
76940;BME280;65885;55.848;35.916;2023-02-28T00:46:07;99843.41;;;-5.21;62.35
76940;BME280;65885;55.848;35.916;2023-02-28T00:48:34;99848.09;;;-5.35;62.09
76940;BME280;65885;55.848;35.916;2023-02-28T00:51:02;99847.72;;;-5.48;62.36
76940;BME280;65885;55.848;35.916;2023-02-28T00:53:30;99844.06;;;-5.56;62.89
76940;BME280;65885;55.848;35.916;2023-02-28T00:55:58;99834.56;;;-5.61;62.77
76940;BME280;65885;55.848;35.916;2023-02-28T00:58:28;99832.00;;;-5.61;62.77
76940;BME280;65885;55.848;35.916;2023-02-28T01:00:55;99831.19;;;-5.60;62.45
76940;BME280;65885;55.848;35.916;2023-02-28T01:03:23;99828.75;;;-5.56;62.27
76940;BME280;65885;55.848;35.916;2023-02-28T01:05:50;99819.38;;;-5.56;62.27
76940;BME280;65885;55.848;35.916;2023-02-28T01:08:19;99810.94;;;-5.53;61.86
76940;BME280;65885;55.848;35.916;2023-02-28T01:10:46;99816.16;;;-5.50;62.24
76940;BME280;65885;55.848;35.916;2023-02-28T01:13:14;99803.41;;;-5.49;61.83
76940;BME280;65885;55.848;35.916;2023-02-28T01:15:48;99794.09;;;-5.47;61.82
76940;BME280;65885;55.848;35.916;2023-02-28T01:18:17;99794.09;;;-5.47;62.27
76940;BME280;65885;55.848;35.916;2023-02-28T01:20:44;99782.19;;;-5.46;62.20
76940;BME280;65885;55.848;35.916;2023-02-28T01:23:13;99790.63;;;-5.49;61.85
76940;BME280;65885;55.848;35.916;2023-02-28T01:25:40;99781.84;;;-5.59;61.34
76940;BME280;65885;55.848;35.916;2023-02-28T01:28:07;99785.78;;;-5.70;61.44
76940;BME280;65885;55.848;35.916;2023-02-28T01:30:35;99773.47;;;-5.83;61.52
76940;BME280;65885;55.848;35.916;2023-02-28T01:33:03;99776.63;;;-5.93;61.51
76940;BME280;65885;55.848;35.916;2023-02-28T01:35:32;99778.22;;;-5.97;61.77
76940;BME280;65885;55.848;35.916;2023-02-28T01:37:59;99764.53;;;-5.99;62.12
76940;BME280;65885;55.848;35.916;2023-02-28T01:40:27;99767.09;;;-5.99;62.22
76940;BME280;65885;55.848;35.916;2023-02-28T01:42:54;99763.81;;;-5.95;62.06
76940;BME280;65885;55.848;35.916;2023-02-28T01:45:24;99751.94;;;-5.93;62.02
76940;BME280;65885;55.848;35.916;2023-02-28T01:47:55;99750.31;;;-5.91;62.14
76940;BME280;65885;55.848;35.916;2023-02-28T01:50:29;99739.31;;;-5.88;61.89
76940;BME280;65885;55.848;35.916;2023-02-28T01:53:02;99738.50;;;-5.86;62.07
76940;BME280;65885;55.848;35.916;2023-02-28T01:55:32;99733.44;;;-5.84;61.77
76940;BME280;65885;55.848;35.916;2023-02-28T01:58:02;99720.69;;;-5.84;61.44
76940;BME280;65885;55.848;35.916;2023-02-28T02:00:30;99713.84;;;-5.85;61.92
76940;BME280;65885;55.848;35.916;2023-02-28T02:02:59;99715.53;;;-5.86;61.69
76940;BME280;65885;55.848;35.916;2023-02-28T02:05:30;99702.75;;;-5.86;61.57
76940;BME280;65885;55.848;35.916;2023-02-28T02:08:02;99705.28;;;-5.87;61.59
76940;BME280;65885;55.848;35.916;2023-02-28T02:10:33;99689.06;;;-5.89;61.24
76940;BME280;65885;55.848;35.916;2023-02-28T02:13:32;99688.16;;;-5.91;61.52
76940;BME280;65885;55.848;35.916;2023-02-28T02:16:11;99682.97;;;-5.94;61.35
76940;BME280;65885;55.848;35.916;2023-02-28T02:18:46;99681.00;;;-6.04;61.05
76940;BME280;65885;55.848;35.916;2023-02-28T02:24:51;99667.41;;;-6.33;61.58
76940;BME280;65885;55.848;35.916;2023-02-28T02:27:33;99679.81;;;-6.44;61.88
76940;BME280;65885;55.848;35.916;2023-02-28T02:30:22;99667.69;;;-6.51;62.48
76940;BME280;65885;55.848;35.916;2023-02-28T02:33:28;99662.72;;;-6.48;62.86
76940;BME280;65885;55.848;35.916;2023-02-28T02:36:03;99650.03;;;-6.45;62.38
76940;BME280;65885;55.848;35.916;2023-02-28T02:38:36;99653.63;;;-6.38;62.46
76940;BME280;65885;55.848;35.916;2023-02-28T02:41:12;99645.31;;;-6.33;62.56
76940;BME280;65885;55.848;35.916;2023-02-28T02:43:46;99644.56;;;-6.29;62.44
76940;BME280;65885;55.848;35.916;2023-02-28T02:46:18;99648.13;;;-6.24;61.98
76940;BME280;65885;55.848;35.916;2023-02-28T02:48:48;99634.53;;;-6.23;61.94
76940;BME280;65885;55.848;35.916;2023-02-28T02:51:20;99634.50;;;-6.24;62.03
76940;BME280;65885;55.848;35.916;2023-02-28T02:53:52;99638.59;;;-6.29;61.71
76940;BME280;65885;55.848;35.916;2023-02-28T02:56:26;99638.38;;;-6.37;61.20
76940;BME280;65885;55.848;35.916;2023-02-28T02:58:59;99632.06;;;-6.50;61.82
76940;BME280;65885;55.848;35.916;2023-02-28T03:01:29;99627.50;;;-6.60;62.21
76940;BME280;65885;55.848;35.916;2023-02-28T03:03:59;99620.47;;;-6.67;62.15
76940;BME280;65885;55.848;35.916;2023-02-28T03:06:29;99617.06;;;-6.67;62.49
76940;BME280;65885;55.848;35.916;2023-02-28T03:08:57;99618.03;;;-6.64;62.36
76940;BME280;65885;55.848;35.916;2023-02-28T03:11:24;99612.19;;;-6.60;62.48
76940;BME280;65885;55.848;35.916;2023-02-28T03:13:58;99607.25;;;-6.55;62.50
76940;BME280;65885;55.848;35.916;2023-02-28T03:16:43;99600.63;;;-6.49;62.21
76940;BME280;65885;55.848;35.916;2023-02-28T03:19:43;99598.16;;;-6.46;62.53
76940;BME280;65885;55.848;35.916;2023-02-28T03:22:27;99594.09;;;-6.39;62.41
76940;BME280;65885;55.848;35.916;2023-02-28T03:25:04;99587.38;;;-6.35;61.77
76940;BME280;65885;55.848;35.916;2023-02-28T03:27:38;99583.25;;;-6.32;62.29
76940;BME280;65885;55.848;35.916;2023-02-28T03:30:14;99589.28;;;-6.28;62.18
76940;BME280;65885;55.848;35.916;2023-02-28T03:32:53;99587.69;;;-6.25;61.66
76940;BME280;65885;55.848;35.916;2023-02-28T03:35:22;99588.59;;;-6.23;61.60
76940;BME280;65885;55.848;35.916;2023-02-28T03:37:53;99588.56;;;-6.24;61.86
76940;BME280;65885;55.848;35.916;2023-02-28T03:40:25;99584.19;;;-6.28;61.64
76940;BME280;65885;55.848;35.916;2023-02-28T03:42:59;99573.78;;;-6.36;61.55
76940;BME280;65885;55.848;35.916;2023-02-28T03:45:30;99576.06;;;-6.45;61.98
76940;BME280;65885;55.848;35.916;2023-02-28T03:48:02;99574.09;;;-6.55;61.91
76940;BME280;65885;55.848;35.916;2023-02-28T03:50:36;99575.47;;;-6.65;62.51
76940;BME280;65885;55.848;35.916;2023-02-28T03:53:10;99581.16;;;-6.75;62.41
76940;BME280;65885;55.848;35.916;2023-02-28T03:55:41;99577.59;;;-6.80;62.61
76940;BME280;65885;55.848;35.916;2023-02-28T03:58:14;99576.72;;;-6.81;62.94
76940;BME280;65885;55.848;35.916;2023-02-28T04:00:46;99571.72;;;-6.78;63.08
76940;BME280;65885;55.848;35.916;2023-02-28T04:03:14;99561.72;;;-6.72;62.65
76940;BME280;65885;55.848;35.916;2023-02-28T04:05:47;99554.28;;;-6.64;62.87
76940;BME280;65885;55.848;35.916;2023-02-28T04:08:18;99551.97;;;-6.56;62.37
76940;BME280;65885;55.848;35.916;2023-02-28T04:10:52;99547.00;;;-6.50;62.48
76940;BME280;65885;55.848;35.916;2023-02-28T04:13:21;99542.94;;;-6.44;62.38
76940;BME280;65885;55.848;35.916;2023-02-28T04:15:48;99534.59;;;-6.38;62.29
76940;BME280;65885;55.848;35.916;2023-02-28T04:18:16;99533.88;;;-6.34;62.30
76940;BME280;65885;55.848;35.916;2023-02-28T04:20:43;99528.00;;;-6.31;61.96
76940;BME280;65885;55.848;35.916;2023-02-28T04:23:11;99517.03;;;-6.27;61.68
76940;BME280;65885;55.848;35.916;2023-02-28T04:25:40;99518.72;;;-6.28;61.30
76940;BME280;65885;55.848;35.916;2023-02-28T04:28:08;99508.44;;;-6.31;61.58
76940;BME280;65885;55.848;35.916;2023-02-28T04:30:35;99506.53;;;-6.38;61.61
76940;BME280;65885;55.848;35.916;2023-02-28T04:33:04;99494.34;;;-6.50;61.91
76940;BME280;65885;55.848;35.916;2023-02-28T04:35:32;99488.13;;;-6.58;62.19
76940;BME280;65885;55.848;35.916;2023-02-28T04:37:59;99487.13;;;-6.64;62.21
76940;BME280;65885;55.848;35.916;2023-02-28T04:40:27;99481.22;;;-6.63;62.12
76940;BME280;65885;55.848;35.916;2023-02-28T04:42:56;99477.03;;;-6.60;62.46
76940;BME280;65885;55.848;35.916;2023-02-28T04:45:23;99479.81;;;-6.52;62.50
76940;BME280;65885;55.848;35.916;2023-02-28T04:47:51;99475.75;;;-6.44;62.22
76940;BME280;65885;55.848;35.916;2023-02-28T04:50:21;99464.06;;;-6.36;62.33
76940;BME280;65885;55.848;35.916;2023-02-28T04:52:48;99462.56;;;-6.29;62.34
76940;BME280;65885;55.848;35.916;2023-02-28T04:55:16;99457.66;;;-6.22;61.91
76940;BME280;65885;55.848;35.916;2023-02-28T04:57:44;99447.59;;;-6.16;62.16
76940;BME280;65885;55.848;35.916;2023-02-28T05:00:13;99452.00;;;-6.10;61.94
76940;BME280;65885;55.848;35.916;2023-02-28T05:02:42;99436.78;;;-6.05;61.71
76940;BME280;65885;55.848;35.916;2023-02-28T05:05:10;99440.34;;;-5.99;61.66
76940;BME280;65885;55.848;35.916;2023-02-28T05:07:37;99437.06;;;-5.95;61.89
76940;BME280;65885;55.848;35.916;2023-02-28T05:10:05;99442.22;;;-5.90;61.69
76940;BME280;65885;55.848;35.916;2023-02-28T05:12:33;99442.34;;;-5.86;61.45
76940;BME280;65885;55.848;35.916;2023-02-28T05:15:00;99435.59;;;-5.82;61.42
76940;BME280;65885;55.848;35.916;2023-02-28T05:17:30;99438.22;;;-5.80;61.39
76940;BME280;65885;55.848;35.916;2023-02-28T05:19:58;99420.25;;;-5.83;61.33
76940;BME280;65885;55.848;35.916;2023-02-28T05:22:26;99424.44;;;-5.87;61.30
76940;BME280;65885;55.848;35.916;2023-02-28T05:24:53;99416.69;;;-5.92;61.73
76940;BME280;65885;55.848;35.916;2023-02-28T05:27:21;99419.16;;;-5.96;61.51
76940;BME280;65885;55.848;35.916;2023-02-28T05:29:49;99414.75;;;-6.02;61.64
76940;BME280;65885;55.848;35.916;2023-02-28T05:32:16;99411.41;;;-5.99;62.14
76940;BME280;65885;55.848;35.916;2023-02-28T05:34:45;99406.50;;;-5.92;62.31
76940;BME280;65885;55.848;35.916;2023-02-28T05:37:14;99395.66;;;-5.81;62.40
76940;BME280;65885;55.848;35.916;2023-02-28T05:39:41;99385.81;;;-5.65;62.33
76940;BME280;65885;55.848;35.916;2023-02-28T05:42:09;99376.81;;;-5.47;62.25
76940;BME280;65885;55.848;35.916;2023-02-28T05:44:36;99386.47;;;-5.34;62.37
76940;BME280;65885;55.848;35.916;2023-02-28T05:47:04;99380.03;;;-5.15;61.74
76940;BME280;65885;55.848;35.916;2023-02-28T05:49:31;99369.25;;;-4.99;61.45
76940;BME280;65885;55.848;35.916;2023-02-28T05:52:00;99360.13;;;-4.86;61.61
76940;BME280;65885;55.848;35.916;2023-02-28T05:54:27;99362.97;;;-4.71;61.12
76940;BME280;65885;55.848;35.916;2023-02-28T05:56:55;99359.81;;;-4.56;61.66
76940;BME280;65885;55.848;35.916;2023-02-28T05:59:22;99343.84;;;-4.43;61.53
76940;BME280;65885;55.848;35.916;2023-02-28T06:01:50;99333.78;;;-4.32;61.14
76940;BME280;65885;55.848;35.916;2023-02-28T06:04:20;99312.53;;;-4.27;60.89
76940;BME280;65885;55.848;35.916;2023-02-28T06:06:48;99316.84;;;-4.24;61.02
76940;BME280;65885;55.848;35.916;2023-02-28T06:09:18;99322.81;;;-4.24;60.92
76940;BME280;65885;55.848;35.916;2023-02-28T06:11:47;99314.34;;;-4.23;61.04
76940;BME280;65885;55.848;35.916;2023-02-28T06:14:15;99306.69;;;-4.18;61.08
76940;BME280;65885;55.848;35.916;2023-02-28T06:16:43;99301.78;;;-4.06;61.71
76940;BME280;65885;55.848;35.916;2023-02-28T06:19:11;99294.31;;;-3.91;61.27
76940;BME280;65885;55.848;35.916;2023-02-28T06:21:38;99292.91;;;-3.69;61.46
76940;BME280;65885;55.848;35.916;2023-02-28T06:24:06;99287.13;;;-3.52;61.10
76940;BME280;65885;55.848;35.916;2023-02-28T06:26:35;99287.25;;;-3.40;60.81
76940;BME280;65885;55.848;35.916;2023-02-28T06:29:03;99284.00;;;-3.25;60.69
76940;BME280;65885;55.848;35.916;2023-02-28T06:31:31;99278.16;;;-3.11;60.40
76940;BME280;65885;55.848;35.916;2023-02-28T06:33:59;99261.22;;;-2.96;60.03
76940;BME280;65885;55.848;35.916;2023-02-28T06:36:26;99255.34;;;-2.85;59.90
76940;BME280;65885;55.848;35.916;2023-02-28T06:38:55;99244.31;;;-2.73;59.75
76940;BME280;65885;55.848;35.916;2023-02-28T06:41:23;99240.16;;;-2.57;59.68
76940;BME280;65885;55.848;35.916;2023-02-28T06:43:53;99242.84;;;-2.46;59.36
76940;BME280;65885;55.848;35.916;2023-02-28T06:46:21;99222.34;;;-2.37;59.11
76940;BME280;65885;55.848;35.916;2023-02-28T06:48:48;99229.22;;;-2.35;59.14
76940;BME280;65885;55.848;35.916;2023-02-28T06:51:18;99218.94;;;-2.35;59.08
76940;BME280;65885;55.848;35.916;2023-02-28T06:53:46;99212.09;;;-2.36;59.10
76940;BME280;65885;55.848;35.916;2023-02-28T06:56:15;99202.69;;;-2.35;59.14
76940;BME280;65885;55.848;35.916;2023-02-28T06:58:46;99200.16;;;-2.31;59.07
76940;BME280;65885;55.848;35.916;2023-02-28T07:01:15;99199.34;;;-2.24;58.84
76940;BME280;65885;55.848;35.916;2023-02-28T07:03:43;99185.69;;;-2.16;58.95
76940;BME280;65885;55.848;35.916;2023-02-28T07:06:11;99171.19;;;-2.04;59.08
76940;BME280;65885;55.848;35.916;2023-02-28T07:08:38;99175.50;;;-1.92;58.89
76940;BME280;65885;55.848;35.916;2023-02-28T07:11:07;99161.00;;;-1.81;58.60
76940;BME280;65885;55.848;35.916;2023-02-28T07:13:34;99182.44;;;-1.70;58.28
76940;BME280;65885;55.848;35.916;2023-02-28T07:16:04;99161.06;;;-1.55;58.30
76940;BME280;65885;55.848;35.916;2023-02-28T07:18:35;99140.50;;;-1.44;57.83
76940;BME280;65885;55.848;35.916;2023-02-28T07:21:03;99143.97;;;-1.34;58.09
76940;BME280;65885;55.848;35.916;2023-02-28T07:23:31;99128.56;;;-1.27;57.73
76940;BME280;65885;55.848;35.916;2023-02-28T07:25:58;99143.13;;;-1.26;57.53
76940;BME280;65885;55.848;35.916;2023-02-28T07:28:26;99142.28;;;-1.26;57.50
76940;BME280;65885;55.848;35.916;2023-02-28T07:30:54;99137.97;;;-1.32;57.32
76940;BME280;65885;55.848;35.916;2023-02-28T07:33:22;99145.69;;;-1.35;57.64
76940;BME280;65885;55.848;35.916;2023-02-28T07:35:51;99138.84;;;-1.36;58.04
76940;BME280;65885;55.848;35.916;2023-02-28T07:38:19;99129.38;;;-1.38;57.98
76940;BME280;65885;55.848;35.916;2023-02-28T07:40:46;99131.09;;;-1.39;58.32
76940;BME280;65885;55.848;35.916;2023-02-28T07:43:14;99137.09;;;-1.37;58.56
76940;BME280;65885;55.848;35.916;2023-02-28T07:45:41;99131.09;;;-1.30;58.76
76940;BME280;65885;55.848;35.916;2023-02-28T07:48:09;99127.69;;;-1.17;58.90
76940;BME280;65885;55.848;35.916;2023-02-28T07:50:37;99123.41;;;-1.02;58.44
76940;BME280;65885;55.848;35.916;2023-02-28T07:53:06;99123.38;;;-0.86;58.37
76940;BME280;65885;55.848;35.916;2023-02-28T07:55:34;99105.38;;;-0.73;57.96
76940;BME280;65885;55.848;35.916;2023-02-28T07:58:01;99077.84;;;-0.54;57.37
76940;BME280;65885;55.848;35.916;2023-02-28T08:00:28;99076.13;;;-0.45;57.45
76940;BME280;65885;55.848;35.916;2023-02-28T08:02:58;99048.56;;;-0.32;56.84
76940;BME280;65885;55.848;35.916;2023-02-28T08:05:25;99062.28;;;-0.24;56.81
76940;BME280;65885;55.848;35.916;2023-02-28T08:07:52;99071.69;;;-0.15;55.73
76940;BME280;65885;55.848;35.916;2023-02-28T08:10:21;99075.16;;;-0.15;55.72
76940;BME280;65885;55.848;35.916;2023-02-28T08:12:52;99079.44;;;-0.14;55.87
76940;BME280;65885;55.848;35.916;2023-02-28T08:15:19;99062.28;;;-0.21;56.14
76940;BME280;65885;55.848;35.916;2023-02-28T08:17:54;99058.88;;;-0.31;55.94
76940;BME280;65885;55.848;35.916;2023-02-28T08:20:22;99088.13;;;-0.42;56.03
76940;BME280;65885;55.848;35.916;2023-02-28T08:22:49;99104.44;;;-0.54;56.33
76940;BME280;65885;55.848;35.916;2023-02-28T08:25:17;99115.63;;;-0.63;56.45
76940;BME280;65885;55.848;35.916;2023-02-28T08:27:46;99119.06;;;-0.70;57.03
76940;BME280;65885;55.848;35.916;2023-02-28T08:30:14;99128.53;;;-0.76;57.52
76940;BME280;65885;55.848;35.916;2023-02-28T08:32:42;99119.97;;;-0.80;58.01
76940;BME280;65885;55.848;35.916;2023-02-28T08:35:09;99128.56;;;-0.82;58.18
76940;BME280;65885;55.848;35.916;2023-02-28T08:37:37;99116.50;;;-0.84;58.37
76940;BME280;65885;55.848;35.916;2023-02-28T08:40:06;99115.69;;;-0.89;58.66
76940;BME280;65885;55.848;35.916;2023-02-28T08:42:34;99113.94;;;-0.91;59.04
76940;BME280;65885;55.848;35.916;2023-02-28T08:45:04;99113.09;;;-0.92;59.41
76940;BME280;65885;55.848;35.916;2023-02-28T08:47:32;99119.97;;;-0.89;59.70
76940;BME280;65885;55.848;35.916;2023-02-28T08:49:59;99107.09;;;-0.81;59.68
76940;BME280;65885;55.848;35.916;2023-02-28T08:52:26;99106.22;;;-0.73;59.73
76940;BME280;65885;55.848;35.916;2023-02-28T08:54:56;99113.91;;;-0.61;59.51
76940;BME280;65885;55.848;35.916;2023-02-28T08:57:24;99107.00;;;-0.48;59.46
76940;BME280;65885;55.848;35.916;2023-02-28T08:59:53;99104.41;;;-0.36;59.65
76940;BME280;65885;55.848;35.916;2023-02-28T09:02:22;99092.34;;;-0.24;59.13
76940;BME280;65885;55.848;35.916;2023-02-28T09:04:49;99095.72;;;-0.10;58.90
76940;BME280;65885;55.848;35.916;2023-02-28T09:07:17;99072.50;;;0.01;58.77
76940;BME280;65885;55.848;35.916;2023-02-28T09:09:44;99063.88;;;0.05;58.86
76940;BME280;65885;55.848;35.916;2023-02-28T09:12:21;99067.31;;;0.02;58.42
76940;BME280;65885;55.848;35.916;2023-02-28T09:14:49;99042.41;;;-0.01;59.07
76940;BME280;65885;55.848;35.916;2023-02-28T09:17:17;99046.72;;;0.01;58.92
76940;BME280;65885;55.848;35.916;2023-02-28T09:19:47;99058.75;;;0.02;59.38
76940;BME280;65885;55.848;35.916;2023-02-28T09:22:15;99070.75;;;0.03;59.14
76940;BME280;65885;55.848;35.916;2023-02-28T09:24:42;99081.94;;;0.02;59.09
76940;BME280;65885;55.848;35.916;2023-02-28T09:27:10;99079.34;;;0.02;59.58
76940;BME280;65885;55.848;35.916;2023-02-28T09:29:37;99065.63;;;-0.04;59.67
76940;BME280;65885;55.848;35.916;2023-02-28T09:32:05;99073.38;;;-0.07;59.63
76940;BME280;65885;55.848;35.916;2023-02-28T09:34:33;99064.81;;;-0.07;59.30
76940;BME280;65885;55.848;35.916;2023-02-28T09:37:04;99085.38;;;-0.03;59.88
76940;BME280;65885;55.848;35.916;2023-02-28T09:39:31;99076.75;;;0.06;59.55
76940;BME280;65885;55.848;35.916;2023-02-28T09:41:59;99073.25;;;0.13;59.81
76940;BME280;65885;55.848;35.916;2023-02-28T09:44:29;99056.88;;;0.22;59.01
76940;BME280;65885;55.848;35.916;2023-02-28T09:47:01;99049.09;;;0.30;59.54
76940;BME280;65885;55.848;35.916;2023-02-28T09:49:37;99039.63;;;0.35;59.42
76940;BME280;65885;55.848;35.916;2023-02-28T09:52:11;99035.31;;;0.34;58.66
76940;BME280;65885;55.848;35.916;2023-02-28T09:54:39;99027.59;;;0.29;58.90
76940;BME280;65885;55.848;35.916;2023-02-28T09:57:08;99027.69;;;0.23;58.80
76940;BME280;65885;55.848;35.916;2023-02-28T10:00:03;99024.25;;;0.15;59.29
76940;BME280;65885;55.848;35.916;2023-02-28T10:02:49;99018.31;;;0.07;59.95
76940;BME280;65885;55.848;35.916;2023-02-28T10:05:22;99010.63;;;0.01;60.17
76940;BME280;65885;55.848;35.916;2023-02-28T10:08:11;99008.03;;;-0.01;60.38
76940;BME280;65885;55.848;35.916;2023-02-28T10:10:40;98993.44;;;-0.02;60.41
76940;BME280;65885;55.848;35.916;2023-02-28T10:13:17;98995.16;;;-0.01;60.83
76940;BME280;65885;55.848;35.916;2023-02-28T10:15:51;98979.66;;;0.05;60.95
76940;BME280;65885;55.848;35.916;2023-02-28T10:18:23;98971.00;;;0.17;61.21
76940;BME280;65885;55.848;35.916;2023-02-28T10:20:53;98979.47;;;0.31;61.64
76940;BME280;65885;55.848;35.916;2023-02-28T10:23:27;98982.78;;;0.48;61.54
76940;BME280;65885;55.848;35.916;2023-02-28T10:25:59;98982.63;;;0.64;60.55
76940;BME280;65885;55.848;35.916;2023-02-28T10:28:29;98977.31;;;0.79;61.15
76940;BME280;65885;55.848;35.916;2023-02-28T10:30:58;98988.38;;;0.90;60.78
76940;BME280;65885;55.848;35.916;2023-02-28T10:33:28;98967.66;;;0.99;60.21
76940;BME280;65885;55.848;35.916;2023-02-28T10:35:57;98968.50;;;1.01;60.21
76940;BME280;65885;55.848;35.916;2023-02-28T10:38:31;98959.94;;;0.96;60.08
76940;BME280;65885;55.848;35.916;2023-02-28T10:41:07;98949.66;;;0.90;59.60
76940;BME280;65885;55.848;35.916;2023-02-28T10:43:35;98954.06;;;0.82;59.95
76940;BME280;65885;55.848;35.916;2023-02-28T10:46:09;98936.09;;;0.76;60.13
76940;BME280;65885;55.848;35.916;2023-02-28T10:48:42;98925.81;;;0.70;60.26
76940;BME280;65885;55.848;35.916;2023-02-28T10:51:11;98920.75;;;0.61;60.49
76940;BME280;65885;55.848;35.916;2023-02-28T10:53:48;98909.63;;;0.52;61.42
76940;BME280;65885;55.848;35.916;2023-02-28T10:56:17;98888.97;;;0.55;61.81
76940;BME280;65885;55.848;35.916;2023-02-28T10:58:53;98915.50;;;0.67;60.88
76940;BME280;65885;55.848;35.916;2023-02-28T11:01:23;98915.44;;;0.76;61.31
76940;BME280;65885;55.848;35.916;2023-02-28T11:03:52;98917.91;;;0.85;61.67
76940;BME280;65885;55.848;35.916;2023-02-28T11:06:21;98901.47;;;0.94;61.01
76940;BME280;65885;55.848;35.916;2023-02-28T11:08:53;98895.28;;;1.05;60.90
76940;BME280;65885;55.848;35.916;2023-02-28T11:11:22;98896.06;;;1.14;60.79
76940;BME280;65885;55.848;35.916;2023-02-28T11:13:53;98889.97;;;1.18;60.84
76940;BME280;65885;55.848;35.916;2023-02-28T11:16:22;98894.25;;;1.19;60.45
76940;BME280;65885;55.848;35.916;2023-02-28T11:18:59;98887.44;;;1.15;60.85
76940;BME280;65885;55.848;35.916;2023-02-28T11:21:29;98878.88;;;1.09;61.35
76940;BME280;65885;55.848;35.916;2023-02-28T11:24:03;98884.09;;;1.08;61.11
76940;BME280;65885;55.848;35.916;2023-02-28T11:26:40;98869.47;;;1.05;60.86
76940;BME280;65885;55.848;35.916;2023-02-28T11:29:17;98877.25;;;1.02;61.18
76940;BME280;65885;55.848;35.916;2023-02-28T11:32:02;98876.50;;;0.94;61.76
76940;BME280;65885;55.848;35.916;2023-02-28T11:34:31;98882.56;;;0.90;61.60
76940;BME280;65885;55.848;35.916;2023-02-28T11:37:00;98867.03;;;0.95;61.39
76940;BME280;65885;55.848;35.916;2023-02-28T11:39:32;98865.22;;;1.01;62.42
76940;BME280;65885;55.848;35.916;2023-02-28T11:42:31;98863.34;;;1.13;61.39
76940;BME280;65885;55.848;35.916;2023-02-28T11:45:12;98844.31;;;1.20;61.63
76940;BME280;65885;55.848;35.916;2023-02-28T11:47:47;98848.50;;;1.28;61.88
76940;BME280;65885;55.848;35.916;2023-02-28T11:50:29;98844.09;;;1.35;61.51
76940;BME280;65885;55.848;35.916;2023-02-28T11:53:10;98852.69;;;1.38;61.66
76940;BME280;65885;55.848;35.916;2023-02-28T11:55:43;98841.56;;;1.33;61.29
76940;BME280;65885;55.848;35.916;2023-02-28T11:58:20;98837.44;;;1.22;61.79
76940;BME280;65885;55.848;35.916;2023-02-28T12:01:11;98837.59;;;1.09;61.38
76940;BME280;65885;55.848;35.916;2023-02-28T12:03:53;98840.31;;;0.97;61.56
76940;BME280;65885;55.848;35.916;2023-02-28T12:06:29;98832.75;;;0.85;61.71
76940;BME280;65885;55.848;35.916;2023-02-28T12:09:16;98844.03;;;0.75;62.54
76940;BME280;65885;55.848;35.916;2023-02-28T12:11:52;98827.78;;;0.67;62.89
76940;BME280;65885;55.848;35.916;2023-02-28T12:14:37;98833.88;;;0.63;63.60
76940;BME280;65885;55.848;35.916;2023-02-28T12:17:20;98817.56;;;0.58;64.44
76940;BME280;65885;55.848;35.916;2023-02-28T12:19:58;98809.84;;;0.56;64.34
76940;BME280;65885;55.848;35.916;2023-02-28T12:22:30;98813.31;;;0.55;64.98
76940;BME280;65885;55.848;35.916;2023-02-28T12:25:24;98806.28;;;0.66;64.91
76940;BME280;65885;55.848;35.916;2023-02-28T12:28:01;98793.19;;;0.81;64.44
76940;BME280;65885;55.848;35.916;2023-02-28T12:30:31;98794.78;;;0.90;64.93
76940;BME280;65885;55.848;35.916;2023-02-28T12:33:04;98799.88;;;0.99;63.95
76940;BME280;65885;55.848;35.916;2023-02-28T12:35:33;98787.69;;;1.07;63.82
76940;BME280;65885;55.848;35.916;2023-02-28T12:38:05;98798.78;;;1.16;64.17
76940;BME280;65885;55.848;35.916;2023-02-28T12:40:43;98787.47;;;1.23;63.39
76940;BME280;65885;55.848;35.916;2023-02-28T12:43:15;98769.41;;;1.23;63.91
76940;BME280;65885;55.848;35.916;2023-02-28T12:45:46;98760.88;;;1.18;63.92
76940;BME280;65885;55.848;35.916;2023-02-28T12:48:20;98763.50;;;1.13;64.17
76940;BME280;65885;55.848;35.916;2023-02-28T12:50:49;98758.44;;;1.05;64.35
76940;BME280;65885;55.848;35.916;2023-02-28T12:53:23;98762.88;;;0.99;64.20
76940;BME280;65885;55.848;35.916;2023-02-28T12:55:59;98750.91;;;0.93;64.99
76940;BME280;65885;55.848;35.916;2023-02-28T12:58:35;98759.56;;;0.88;64.51
76940;BME280;65885;55.848;35.916;2023-02-28T13:01:42;98764.78;;;0.83;64.94
76940;BME280;65885;55.848;35.916;2023-02-28T13:04:34;98757.13;;;0.78;65.15
76940;BME280;65885;55.848;35.916;2023-02-28T13:07:32;98762.22;;;0.81;65.28
76940;BME280;65885;55.848;35.916;2023-02-28T13:10:05;98748.34;;;0.92;65.11
76940;BME280;65885;55.848;35.916;2023-02-28T13:12:34;98745.63;;;1.01;65.47
76940;BME280;65885;55.848;35.916;2023-02-28T13:15:06;98729.09;;;1.13;65.21
76940;BME280;65885;55.848;35.916;2023-02-28T13:17:39;98718.56;;;1.25;64.74